createdAt,value
2023-01-20T00:00:43.294Z,43.13
2023-01-20T00:05:09.491Z,34.97
2023-01-20T00:09:16.494Z,49.15
2023-01-20T00:13:19.869Z,42.80
2023-01-20T00:17:26.430Z,50.45
2023-01-20T00:21:36.871Z,42.88
2023-01-20T00:25:39.943Z,44.88
2023-01-20T00:29:44.504Z,48.33
2023-01-20T00:33:48.495Z,49.67
2023-01-20T00:41:55.674Z,44.47
2023-01-20T00:45:58.803Z,42.38
2023-01-20T00:50:01.784Z,44.17
2023-01-20T00:54:06.274Z,46.30
2023-01-20T00:58:09.620Z,43.25
2023-01-20T01:02:12.662Z,45.78
2023-01-20T01:06:17.919Z,53.35
2023-01-20T01:10:22.185Z,49.70
2023-01-20T01:14:25.451Z,42.70
2023-01-20T01:18:28.830Z,51.38
2023-01-20T01:22:33.583Z,41.58
2023-01-20T01:26:38.313Z,45.83
2023-01-20T01:30:41.737Z,39.60
2023-01-20T01:34:45.562Z,43.95
2023-01-20T01:38:57.893Z,41.65
2023-01-20T01:43:03.842Z,40.70
2023-01-20T01:47:07.440Z,44.42
2023-01-20T01:55:17.908Z,51.75
2023-01-20T01:59:23.001Z,52.60
2023-01-20T02:03:29.033Z,48.03
2023-01-20T02:07:35.393Z,51.03
2023-01-20T02:11:41.950Z,46.10
2023-01-20T02:15:52.226Z,45.63
2023-01-20T02:20:24.671Z,45.30
2023-01-20T02:25:15.654Z,45.60
2023-01-20T02:29:44.371Z,45.05
2023-01-20T02:33:56.346Z,46.25
2023-01-20T02:38:12.528Z,36.42
2023-01-20T02:42:20.463Z,35.65
2023-01-20T02:46:33.495Z,47.13
2023-01-20T02:50:44.833Z,39.85
2023-01-20T02:54:51.821Z,40.60
2023-01-20T02:58:59.699Z,37.90
2023-01-20T03:03:08.813Z,40.47
2023-01-20T03:07:15.537Z,36.42
2023-01-20T03:11:20.171Z,32.22
2023-01-20T03:15:26.692Z,32.35
2023-01-20T03:19:30.163Z,37.85
2023-01-20T03:23:37.026Z,41.53
2023-01-20T03:27:40.162Z,38.05
2023-01-20T03:31:47.189Z,44.60
2023-01-20T03:35:51.195Z,40.17
2023-01-20T03:39:56.625Z,38.22
2023-01-20T03:44:11.064Z,38.45
2023-01-20T03:48:20.359Z,33.92
2023-01-20T03:52:46.943Z,46.00
2023-01-20T03:57:04.294Z,43.13
2023-01-20T04:01:18.167Z,41.78
2023-01-20T04:05:23.610Z,43.42
2023-01-20T04:09:30.566Z,40.53
2023-01-20T04:13:36.098Z,46.40
2023-01-20T04:17:39.428Z,44.10
2023-01-20T04:21:46.588Z,48.83
2023-01-20T04:25:49.464Z,58.92
2023-01-20T04:29:54.113Z,53.88
2023-01-20T04:33:59.453Z,70.20
2023-01-20T04:38:02.681Z,60.70
2023-01-20T04:42:06.035Z,68.35
2023-01-20T04:46:12.342Z,59.60
2023-01-20T04:50:16.704Z,61.47
2023-01-20T04:54:19.424Z,46.60
2023-01-20T04:58:22.399Z,59.17
2023-01-20T05:02:26.729Z,60.50
2023-01-20T05:06:30.033Z,64.40
2023-01-20T05:10:33.810Z,73.13
2023-01-20T05:14:37.587Z,61.60
2023-01-20T05:18:42.404Z,78.20
2023-01-20T05:22:45.519Z,54.80
2023-01-20T05:26:48.723Z,79.22
2023-01-20T05:30:52.845Z,61.83
2023-01-20T05:34:57.536Z,50.75
2023-01-20T05:39:00.793Z,60.72
2023-01-20T05:43:04.167Z,65.50
2023-01-20T05:47:07.338Z,68.95
2023-01-20T05:51:14.365Z,63.28
2023-01-20T05:55:22.303Z,66.75
2023-01-20T05:59:25.752Z,59.95
2023-01-20T06:03:44.631Z,62.20
2023-01-20T06:07:49.953Z,66.55
2023-01-20T06:11:53.216Z,66.03
2023-01-20T06:15:57.164Z,65.05
2023-01-20T06:20:00.605Z,71.88
2023-01-20T06:24:05.539Z,63.92
2023-01-20T06:28:08.666Z,67.63
2023-01-20T06:32:11.540Z,57.80
2023-01-20T06:36:17.229Z,63.00
2023-01-20T06:40:21.813Z,68.05
2023-01-20T06:44:24.266Z,96.57
2023-01-20T06:48:27.426Z,59.00
2023-01-20T06:52:30.421Z,64.57
2023-01-20T06:56:34.959Z,71.25
2023-01-20T07:00:38.208Z,67.88
2023-01-20T07:04:42.938Z,61.75
2023-01-20T07:08:46.462Z,72.00
2023-01-20T07:16:53.878Z,62.35
2023-01-20T07:20:57.524Z,62.40
2023-01-20T07:25:00.602Z,59.47
2023-01-20T07:29:04.617Z,68.70
2023-01-20T07:33:07.659Z,62.60
2023-01-20T07:37:11.041Z,56.22
2023-01-20T07:41:16.570Z,63.00
2023-01-20T07:45:21.192Z,53.47
2023-01-20T07:49:24.557Z,62.63
2023-01-20T07:57:31.156Z,59.40
2023-01-20T08:01:35.603Z,56.88
2023-01-20T08:05:38.721Z,58.22
2023-01-20T08:09:42.116Z,66.10
2023-01-20T08:13:45.737Z,58.53
2023-01-20T08:17:55.138Z,60.45
2023-01-20T08:22:01.559Z,67.65
2023-01-20T08:26:08.894Z,61.72
2023-01-20T08:30:16.517Z,60.53
2023-01-20T08:34:22.034Z,65.47
2023-01-20T08:38:27.981Z,67.18
2023-01-20T08:42:31.774Z,63.45
2023-01-20T08:46:35.284Z,73.63
2023-01-20T08:50:40.206Z,65.63
2023-01-20T08:54:43.916Z,58.47
2023-01-20T09:02:50.113Z,60.08
2023-01-20T09:06:55.712Z,67.95
2023-01-20T09:11:04.215Z,60.00
2023-01-20T09:15:08.395Z,68.45
2023-01-20T09:19:11.658Z,70.75
2023-01-20T09:23:15.654Z,73.15
2023-01-20T09:27:20.395Z,80.60
2023-01-20T09:31:24.162Z,74.07
2023-01-20T09:35:28.366Z,64.10
2023-01-20T09:39:50.082Z,69.15
2023-01-20T09:44:02.378Z,69.15
2023-01-20T09:48:27.937Z,74.47
2023-01-20T09:52:52.701Z,53.65
2023-01-20T09:57:01.954Z,67.90
2023-01-20T10:01:14.301Z,58.28
2023-01-20T10:05:22.604Z,59.40
2023-01-20T10:09:35.959Z,67.82
2023-01-20T10:13:47.523Z,63.67
2023-01-20T10:17:58.467Z,66.65
2023-01-20T10:22:11.495Z,58.42
2023-01-20T10:26:19.107Z,71.85
2023-01-20T10:30:27.265Z,74.82
2023-01-20T10:34:35.878Z,70.88
2023-01-20T10:38:49.372Z,74.05
2023-01-20T10:42:57.580Z,65.70
2023-01-20T10:47:17.693Z,63.90
2023-01-20T10:51:28.566Z,61.97
2023-01-20T10:55:44.131Z,56.47
2023-01-20T10:59:52.671Z,62.63
2023-01-20T11:03:57.756Z,65.65
2023-01-20T11:08:02.254Z,66.28
2023-01-20T11:12:13.880Z,66.97
2023-01-20T11:16:23.278Z,52.13
2023-01-20T11:20:28.673Z,59.20
2023-01-20T11:24:44.645Z,55.35
2023-01-20T11:28:52.707Z,54.60
2023-01-20T11:33:19.149Z,59.58
2023-01-20T11:37:26.898Z,53.17
2023-01-20T11:41:32.302Z,54.15
2023-01-20T11:45:38.674Z,48.58
2023-01-20T11:49:42.497Z,48.35
2023-01-20T11:53:47.168Z,48.78
2023-01-20T11:57:54.580Z,46.10
2023-01-20T12:02:02.227Z,47.28
2023-01-20T12:06:11.766Z,54.78
2023-01-20T12:10:21.718Z,49.13
2023-01-20T12:14:30.024Z,51.92
2023-01-20T12:18:38.665Z,75.53
2023-01-20T12:22:55.315Z,60.38
2023-01-20T12:27:02.352Z,56.95
2023-01-20T12:31:07.707Z,45.00
2023-01-20T12:35:15.693Z,49.67
2023-01-20T12:39:42.139Z,47.13
2023-01-20T12:43:58.338Z,45.28
2023-01-20T12:48:12.134Z,40.70
2023-01-20T12:52:35.419Z,47.25
2023-01-20T12:56:45.576Z,59.70
2023-01-20T13:01:09.503Z,52.58
2023-01-20T13:05:30.634Z,51.42
2023-01-20T13:09:51.699Z,43.72
2023-01-20T13:14:06.699Z,48.30
2023-01-20T13:18:36.925Z,34.67
2023-01-20T13:22:40.159Z,36.53
2023-01-20T13:26:43.760Z,37.60
2023-01-20T13:30:51.296Z,31.15
2023-01-20T13:34:55.970Z,26.35
2023-01-20T13:39:40.933Z,25.33
2023-01-20T13:43:54.557Z,29.08
2023-01-20T13:48:03.593Z,29.80
2023-01-20T13:52:07.915Z,24.15
2023-01-20T13:56:27.304Z,24.77
2023-01-20T14:00:30.685Z,22.70
2023-01-20T14:04:34.447Z,22.08
2023-01-20T14:08:42.990Z,27.02
2023-01-20T14:12:46.447Z,24.65
2023-01-20T14:16:49.927Z,25.88
2023-01-20T14:21:05.123Z,22.00
2023-01-20T14:25:23.300Z,22.83
2023-01-20T14:29:29.747Z,24.65
2023-01-20T14:33:32.710Z,22.52
2023-01-20T14:37:38.846Z,23.58
2023-01-20T14:41:52.705Z,27.63
2023-01-20T14:45:55.610Z,25.83
2023-01-20T14:49:58.658Z,21.60
2023-01-20T14:54:30.588Z,22.50
2023-01-20T14:58:36.762Z,20.55
2023-01-20T15:02:41.201Z,23.13
2023-01-20T15:06:45.040Z,23.83
2023-01-20T15:10:49.019Z,24.50
2023-01-20T15:15:08.100Z,29.80
2023-01-20T15:19:46.412Z,24.98
2023-01-20T15:23:52.770Z,26.98
2023-01-20T15:27:56.932Z,24.80
2023-01-20T15:32:06.044Z,28.77
2023-01-20T15:36:22.324Z,28.27
2023-01-20T15:40:27.089Z,29.35
2023-01-20T15:44:30.218Z,27.88
2023-01-20T15:48:34.797Z,23.90
2023-01-20T15:52:38.269Z,14.25
2023-01-20T15:56:43.373Z,24.20
2023-01-20T16:00:46.594Z,20.98
2023-01-20T16:04:55.708Z,13.82
2023-01-20T16:09:01.777Z,20.92
2023-01-20T16:13:07.476Z,18.98
2023-01-20T16:17:15.640Z,16.13
2023-01-20T16:21:21.240Z,20.15
2023-01-20T16:25:25.027Z,18.67
2023-01-20T16:29:28.158Z,19.60
2023-01-20T16:33:31.194Z,29.25
2023-01-20T16:37:36.424Z,17.23
2023-01-20T16:41:39.533Z,10.45
2023-01-20T16:45:42.428Z,21.25
2023-01-20T16:49:45.638Z,21.58
2023-01-20T16:53:50.707Z,17.13
2023-01-20T16:57:53.788Z,25.92
2023-01-20T17:06:00.150Z,9.93
2023-01-20T17:10:04.878Z,24.83
2023-01-20T17:14:09.900Z,23.73
2023-01-20T17:18:13.346Z,27.42
2023-01-20T17:22:18.299Z,30.63
2023-01-20T17:26:23.540Z,31.45
2023-01-20T17:30:27.017Z,20.88
2023-01-20T17:34:30.695Z,27.38
2023-01-20T17:38:35.936Z,22.83
2023-01-20T17:42:40.554Z,17.30
2023-01-20T17:46:43.711Z,18.63
2023-01-20T17:50:47.065Z,18.98
2023-01-20T17:54:50.332Z,17.23
2023-01-20T17:58:55.553Z,21.80
2023-01-20T18:02:59.105Z,16.95
2023-01-20T18:07:03.966Z,20.75
2023-01-20T18:11:08.013Z,21.40
2023-01-20T18:15:12.667Z,21.08
2023-01-20T18:19:16.279Z,22.15
2023-01-20T18:23:19.566Z,58.30
2023-01-20T18:27:22.880Z,23.15
2023-01-20T18:31:28.959Z,15.18
2023-01-20T18:35:32.429Z,15.45
2023-01-20T18:39:36.967Z,18.85
2023-01-20T18:43:40.708Z,16.52
2023-01-20T18:51:48.342Z,15.25
2023-01-20T18:55:51.700Z,16.05
2023-01-20T18:59:54.533Z,18.65
2023-01-20T19:03:59.417Z,13.95
2023-01-20T19:08:05.442Z,15.35
2023-01-20T19:12:09.090Z,13.85
2023-01-20T19:20:18.850Z,16.13
2023-01-20T19:24:22.943Z,19.17
2023-01-20T19:28:26.563Z,19.38
2023-01-20T19:32:29.498Z,32.30
2023-01-20T19:36:34.908Z,6.53
2023-01-20T19:40:39.904Z,81.78
2023-01-20T19:44:46.464Z,16.65
2023-01-20T19:48:49.813Z,14.35
2023-01-20T19:52:56.017Z,28.60
2023-01-20T19:56:59.437Z,19.98
2023-01-20T20:01:08.966Z,15.93
2023-01-20T20:05:11.908Z,13.55
2023-01-20T20:09:18.366Z,19.25
2023-01-20T20:13:22.821Z,13.63
2023-01-20T20:17:27.481Z,14.75
2023-01-20T20:21:31.656Z,15.32
2023-01-20T20:25:40.585Z,23.25
2023-01-20T20:29:43.662Z,13.45
2023-01-20T20:33:47.619Z,25.70
2023-01-20T20:37:50.488Z,53.83
2023-01-20T20:41:56.701Z,13.38
2023-01-20T20:46:01.965Z,10.90
2023-01-20T20:50:05.647Z,13.85
2023-01-20T20:54:09.360Z,16.50
2023-01-20T20:58:14.472Z,15.40
2023-01-20T21:02:18.202Z,11.07
2023-01-20T21:06:22.838Z,12.13
2023-01-20T21:10:25.775Z,16.52
2023-01-20T21:14:30.545Z,17.42
2023-01-20T21:18:33.602Z,17.27
2023-01-20T21:22:36.848Z,14.90
2023-01-20T21:30:44.427Z,17.40
2023-01-20T21:35:01.283Z,12.98
2023-01-20T21:39:05.613Z,13.00
2023-01-20T21:43:22.829Z,14.82
2023-01-20T21:47:27.438Z,15.20
2023-01-20T21:51:47.690Z,7.68
2023-01-20T21:55:50.201Z,13.82
2023-01-20T21:59:53.834Z,9.60
2023-01-20T22:03:59.337Z,12.38
2023-01-20T22:08:02.493Z,11.80
2023-01-20T22:12:06.201Z,10.40
2023-01-20T22:16:09.879Z,7.20
2023-01-20T22:20:15.410Z,9.05
2023-01-20T22:24:19.321Z,10.77
2023-01-20T22:28:24.626Z,7.95
2023-01-20T22:32:29.050Z,7.90
2023-01-20T22:36:37.188Z,9.70
2023-01-20T22:40:40.490Z,8.38
2023-01-20T22:44:45.248Z,8.40
2023-01-20T22:48:50.787Z,10.43
2023-01-20T22:52:56.022Z,5.65
2023-01-20T22:56:59.638Z,9.98
2023-01-20T23:01:03.242Z,11.07
2023-01-20T23:05:06.401Z,9.23
2023-01-20T23:09:14.580Z,7.25
2023-01-20T23:13:19.680Z,9.00
2023-01-20T23:17:22.570Z,9.32
2023-01-20T23:21:26.283Z,9.40
2023-01-20T23:25:30.893Z,11.65
2023-01-20T23:29:34.773Z,12.13
2023-01-20T23:33:38.293Z,7.93
2023-01-20T23:37:41.339Z,10.88
2023-01-20T23:41:46.442Z,8.32
2023-01-20T23:45:49.556Z,11.93
2023-01-20T23:49:53.359Z,8.45
2023-01-20T23:53:57.081Z,9.43
